Time;durP1;ratioP1;P1;durP2;ratioP2;P2;SDS_P1;SDS_P2;PMS_P1;PMS_P2;Temp;Humidity;BMP_temperature;BMP_pressure;BME280_temperature;BME280_humidity;BME280_pressure;Samples;Min_cycle;Max_cycle;Signal;HPM_P1;HPM_P2
2024/04/09 00:02:09;;;;;;;18.40;14.20;;;;;;;;;;5407904;26;20570;-72
2024/04/09 00:04:35;;;;;;;20.45;15.15;;;;;;;;;;5391306;26;20231;-72
2024/04/09 00:07:00;;;;;;;20.27;15.40;;;;;;;;;;5371342;26;20247;-72
2024/04/09 00:09:29;;;;;;;22.70;16.00;;;;;;;;;;5397079;26;20255;-72
2024/04/09 00:11:55;;;;;;;20.88;15.18;;;;;;;;;;5397156;26;20283;-71
2024/04/09 00:14:21;;;;;;;23.30;16.00;;;;;;;;;;5405228;26;20255;-71
2024/04/09 00:16:47;;;;;;;21.58;15.77;;;;;;;;;;5391707;26;20741;-72
2024/04/09 00:19:14;;;;;;;24.20;16.17;;;;;;;;;;5391924;26;20243;-71
2024/04/09 00:21:39;;;;;;;25.80;15.60;;;;;;;;;;5405253;26;20331;-72
2024/04/09 00:24:07;;;;;;;24.13;14.15;;;;;;;;;;5407011;26;20235;-71
2024/04/09 00:26:32;;;;;;;23.55;13.85;;;;;;;;;;5410375;26;20254;-71
2024/04/09 00:28:58;;;;;;;25.75;14.00;;;;;;;;;;5417335;26;20340;-71
2024/04/09 00:31:26;;;;;;;16.58;12.25;;;;;;;;;;5408820;26;20254;-71
2024/04/09 00:33:52;;;;;;;23.15;13.18;;;;;;;;;;5406303;26;20255;-71
2024/04/09 00:36:17;;;;;;;22.95;13.55;;;;;;;;;;5420249;26;20317;-72
2024/04/09 00:38:47;;;;;;;21.55;13.40;;;;;;;;;;5414127;26;20225;-72
2024/04/09 00:41:16;;;;;;;22.88;14.15;;;;;;;;;;5408510;26;20619;-71
2024/04/09 00:43:42;;;;;;;25.60;13.20;;;;;;;;;;5407389;26;20528;-71
2024/04/09 00:46:10;;;;;;;19.45;13.32;;;;;;;;;;5421112;26;20226;-71
2024/04/09 00:48:36;;;;;;;24.13;11.00;;;;;;;;;;5418624;26;20229;-71
2024/04/09 00:51:04;;;;;;;22.10;9.35;;;;;;;;;;5412414;26;20306;-71
2024/04/09 00:53:31;;;;;;;22.38;8.90;;;;;;;;;;5422306;26;20230;-71
2024/04/09 00:55:58;;;;;;;22.17;9.68;;;;;;;;;;5410558;26;20331;-71
2024/04/09 00:58:24;;;;;;;22.85;7.80;;;;;;;;;;5407014;26;20386;-72
2024/04/09 01:00:50;;;;;;;24.80;8.45;;;;;;;;;;5400266;26;20269;-71
2024/04/09 01:03:15;;;;;;;22.77;9.13;;;;;;;;;;5408421;26;20239;-71
2024/04/09 01:05:41;;;;;;;24.88;8.70;;;;;;;;;;5408176;26;20227;-71
2024/04/09 01:08:07;;;;;;;26.80;8.48;;;;;;;;;;5381887;26;20383;-71
2024/04/09 01:10:32;;;;;;;22.80;8.13;;;;;;;;;;5392855;26;20232;-71
2024/04/09 01:12:59;;;;;;;20.95;7.97;;;;;;;;;;5403759;26;20741;-71
2024/04/09 01:15:24;;;;;;;21.30;8.10;;;;;;;;;;5404972;26;20235;-71
2024/04/09 01:17:50;;;;;;;24.00;7.93;;;;;;;;;;5389613;26;20752;-72
2024/04/09 01:20:16;;;;;;;24.42;7.90;;;;;;;;;;5411303;26;20239;-71
2024/04/09 01:22:42;;;;;;;26.75;8.45;;;;;;;;;;5401307;26;20282;-71
2024/04/09 01:25:11;;;;;;;21.83;7.88;;;;;;;;;;5393438;26;20286;-71
2024/04/09 01:27:40;;;;;;;20.83;9.00;;;;;;;;;;5399810;26;20260;-71
2024/04/09 01:30:07;;;;;;;22.63;8.13;;;;;;;;;;5395902;26;20436;-72
2024/04/09 01:32:33;;;;;;;21.63;8.63;;;;;;;;;;5399808;26;20283;-71
2024/04/09 01:35:06;;;;;;;22.95;8.85;;;;;;;;;;5407466;26;20394;-72
2024/04/09 01:37:32;;;;;;;20.98;9.38;;;;;;;;;;5394752;26;20325;-72
2024/04/09 01:39:58;;;;;;;22.50;8.73;;;;;;;;;;5411148;26;20598;-71
2024/04/09 01:42:23;;;;;;;21.27;8.32;;;;;;;;;;5394658;26;20239;-72
2024/04/09 01:44:48;;;;;;;19.10;8.70;;;;;;;;;;5397788;26;20551;-71
2024/04/09 01:47:14;;;;;;;20.48;9.90;;;;;;;;;;5403947;26;20239;-72
2024/04/09 01:49:40;;;;;;;19.85;9.10;;;;;;;;;;5402040;26;20285;-71
2024/04/09 01:52:06;;;;;;;24.00;9.23;;;;;;;;;;5411442;26;20725;-71
2024/04/09 01:54:32;;;;;;;27.13;9.38;;;;;;;;;;5414429;26;20289;-71
2024/04/09 01:56:57;;;;;;;25.77;9.07;;;;;;;;;;5398025;26;20368;-71
2024/04/09 01:59:23;;;;;;;21.70;10.02;;;;;;;;;;5390263;26;20686;-71
2024/04/09 02:01:48;;;;;;;21.77;9.35;;;;;;;;;;5405351;26;20234;-72
2024/04/09 02:04:14;;;;;;;23.67;9.27;;;;;;;;;;5402173;26;20240;-71
2024/04/09 02:06:42;;;;;;;20.50;9.43;;;;;;;;;;5399518;26;20261;-71
2024/04/09 02:09:09;;;;;;;28.50;11.20;;;;;;;;;;5395819;26;20240;-71
2024/04/09 02:11:35;;;;;;;24.30;11.00;;;;;;;;;;5386913;26;20247;-71
2024/04/09 02:14:00;;;;;;;25.90;11.85;;;;;;;;;;5410953;26;20285;-71
2024/04/09 02:16:26;;;;;;;20.50;11.20;;;;;;;;;;5391245;26;20362;-71
2024/04/09 02:18:52;;;;;;;26.73;12.02;;;;;;;;;;5390044;26;20383;-71
2024/04/09 02:21:20;;;;;;;25.98;11.27;;;;;;;;;;5395583;26;20877;-71
2024/04/09 02:23:46;;;;;;;20.50;11.27;;;;;;;;;;5378370;26;20248;-71
2024/04/09 02:26:12;;;;;;;21.70;10.73;;;;;;;;;;5379894;26;20626;-71
2024/04/09 02:28:37;;;;;;;20.42;11.13;;;;;;;;;;5401298;26;20239;-71
2024/04/09 02:31:04;;;;;;;21.88;10.50;;;;;;;;;;5391365;26;20266;-71
2024/04/09 02:33:29;;;;;;;28.38;10.63;;;;;;;;;;5404321;26;20397;-71
2024/04/09 02:36:06;;;;;;;17.30;10.20;;;;;;;;;;5397255;26;20470;-71
2024/04/09 02:38:36;;;;;;;22.80;11.00;;;;;;;;;;5395156;26;20256;-71
2024/04/09 02:41:05;;;;;;;26.77;11.35;;;;;;;;;;5427712;26;20612;-71
2024/04/09 02:43:32;;;;;;;21.02;10.70;;;;;;;;;;5375491;26;20410;-72
2024/04/09 02:45:58;;;;;;;21.85;10.98;;;;;;;;;;5419074;26;20228;-71
2024/04/09 02:48:24;;;;;;;21.73;10.50;;;;;;;;;;5403837;26;20232;-71
2024/04/09 02:50:57;;;;;;;19.90;10.45;;;;;;;;;;5382694;26;20284;-71
2024/04/09 02:53:24;;;;;;;19.70;10.13;;;;;;;;;;5388991;26;20280;-71
2024/04/09 02:56:22;;;;;;;21.27;10.90;;;;;;;;;;5408103;26;21128;-71
2024/04/09 02:58:48;;;;;;;21.48;10.60;;;;;;;;;;5378622;26;20244;-72
2024/04/09 03:01:14;;;;;;;21.42;11.05;;;;;;;;;;5398072;26;20334;-71
2024/04/09 03:03:40;;;;;;;26.73;10.90;;;;;;;;;;5400100;26;20380;-71
2024/04/09 03:06:11;;;;;;;25.73;11.75;;;;;;;;;;5398195;26;20231;-71
2024/04/09 03:08:37;;;;;;;20.08;11.10;;;;;;;;;;5382474;26;20581;-71
2024/04/09 03:11:13;;;;;;;19.08;10.90;;;;;;;;;;5405489;26;20285;-71
2024/04/09 03:13:40;;;;;;;18.08;10.70;;;;;;;;;;5397757;26;20262;-71
2024/04/09 03:16:15;;;;;;;21.55;11.07;;;;;;;;;;5398370;26;20246;-71
2024/04/09 03:18:41;;;;;;;19.17;11.15;;;;;;;;;;5411314;26;20253;-71
2024/04/09 03:21:06;;;;;;;24.92;12.00;;;;;;;;;;5403342;26;20664;-71
2024/04/09 03:23:32;;;;;;;26.17;12.43;;;;;;;;;;5390004;26;20247;-71
2024/04/09 03:25:57;;;;;;;21.38;10.15;;;;;;;;;;5407352;26;20235;-71
2024/04/09 03:28:22;;;;;;;25.20;11.02;;;;;;;;;;5408245;26;20238;-71
2024/04/09 03:30:58;;;;;;;22.65;10.73;;;;;;;;;;5393558;26;20247;-71
2024/04/09 03:33:24;;;;;;;15.18;8.95;;;;;;;;;;5402949;26;20969;-71
2024/04/09 03:35:53;;;;;;;19.58;9.93;;;;;;;;;;5387724;26;20281;-71
2024/04/09 03:38:18;;;;;;;18.73;10.00;;;;;;;;;;5394584;26;20727;-71
2024/04/09 03:40:58;;;;;;;16.73;9.45;;;;;;;;;;5398416;26;20235;-71
2024/04/09 03:43:24;;;;;;;16.45;9.27;;;;;;;;;;5423341;26;20320;-71
2024/04/09 03:46:11;;;;;;;16.83;8.27;;;;;;;;;;5351296;26;20251;-71
2024/04/09 03:48:41;;;;;;;12.85;8.00;;;;;;;;;;5390846;26;20532;-71
2024/04/09 03:51:06;;;;;;;16.20;7.85;;;;;;;;;;5390792;26;20824;-71
2024/04/09 03:53:32;;;;;;;14.70;7.22;;;;;;;;;;5376708;26;20265;-71
2024/04/09 03:56:00;;;;;;;15.15;7.20;;;;;;;;;;5376335;26;20682;-71
2024/04/09 03:58:39;;;;;;;15.18;7.10;;;;;;;;;;5408622;26;20636;-71
2024/04/09 04:01:05;;;;;;;12.73;6.30;;;;;;;;;;5416759;26;20298;-71
2024/04/09 04:03:32;;;;;;;12.10;5.90;;;;;;;;;;5403136;26;20281;-71
2024/04/09 04:06:01;;;;;;;11.07;5.13;;;;;;;;;;5394605;26;20239;-70
2024/04/09 04:08:31;;;;;;;13.20;5.35;;;;;;;;;;5393716;26;20300;-70
2024/04/09 04:10:58;;;;;;;10.82;5.13;;;;;;;;;;5385706;26;20252;-70
2024/04/09 04:13:25;;;;;;;14.77;4.97;;;;;;;;;;5383320;26;20822;-70
2024/04/09 04:16:12;;;;;;;10.77;5.10;;;;;;;;;;5408208;26;20729;-70
2024/04/09 04:18:48;;;;;;;9.82;4.30;;;;;;;;;;5402368;26;20265;-70
2024/04/09 04:21:16;;;;;;;9.35;3.60;;;;;;;;;;5400764;26;20330;-70
2024/04/09 04:23:42;;;;;;;7.10;3.95;;;;;;;;;;5408722;26;20235;-70
2024/04/09 04:26:16;;;;;;;9.45;3.78;;;;;;;;;;5404784;26;20779;-70
2024/04/09 04:28:44;;;;;;;7.20;3.13;;;;;;;;;;5403365;26;20265;-70
2024/04/09 04:31:12;;;;;;;9.38;3.25;;;;;;;;;;5407507;26;20239;-70
2024/04/09 04:33:39;;;;;;;5.28;2.55;;;;;;;;;;5399517;26;20696;-70
2024/04/09 04:36:06;;;;;;;10.68;3.13;;;;;;;;;;5384159;26;20326;-70
2024/04/09 04:38:31;;;;;;;4.97;2.85;;;;;;;;;;5399835;26;20300;-70
2024/04/09 04:40:57;;;;;;;8.13;2.70;;;;;;;;;;5403629;26;20259;-70
2024/04/09 04:43:23;;;;;;;5.47;2.60;;;;;;;;;;5407036;26;20268;-70
2024/04/09 04:45:49;;;;;;;7.88;2.75;;;;;;;;;;5404691;26;20355;-70
2024/04/09 04:48:16;;;;;;;8.07;2.55;;;;;;;;;;5395286;26;20730;-70
2024/04/09 04:50:42;;;;;;;6.68;2.67;;;;;;;;;;5398671;26;20228;-70
2024/04/09 04:53:08;;;;;;;9.98;2.92;;;;;;;;;;5406834;26;20417;-70
2024/04/09 04:55:33;;;;;;;6.80;2.67;;;;;;;;;;5397276;26;20279;-70
2024/04/09 04:58:00;;;;;;;7.60;3.05;;;;;;;;;;5415334;26;20295;-70
2024/04/09 05:00:26;;;;;;;6.00;2.58;;;;;;;;;;5406788;26;20234;-70
2024/04/09 05:02:51;;;;;;;6.03;3.33;;;;;;;;;;5397399;26;20270;-70
2024/04/09 05:05:17;;;;;;;5.70;2.50;;;;;;;;;;5404158;26;20231;-70
2024/04/09 05:07:43;;;;;;;5.75;2.75;;;;;;;;;;5408669;26;20282;-71
2024/04/09 05:10:12;;;;;;;6.60;2.70;;;;;;;;;;5389814;26;20274;-71
2024/04/09 05:12:39;;;;;;;5.60;2.72;;;;;;;;;;5398230;26;20239;-71
2024/04/09 05:15:06;;;;;;;5.22;2.60;;;;;;;;;;5381305;26;20607;-71
2024/04/09 05:17:32;;;;;;;5.95;3.10;;;;;;;;;;5387253;26;20352;-71
2024/04/09 05:19:57;;;;;;;8.90;2.97;;;;;;;;;;5397746;26;20259;-71
2024/04/09 05:22:24;;;;;;;7.75;3.25;;;;;;;;;;5396840;26;20703;-71
2024/04/09 05:24:51;;;;;;;7.65;3.22;;;;;;;;;;5408473;26;20293;-71
2024/04/09 05:27:17;;;;;;;7.53;3.85;;;;;;;;;;5412262;26;20698;-71
2024/04/09 05:29:42;;;;;;;11.90;4.30;;;;;;;;;;5407577;26;20234;-71
2024/04/09 05:32:08;;;;;;;10.73;4.50;;;;;;;;;;5403468;26;20254;-71
2024/04/09 05:34:33;;;;;;;9.50;5.78;;;;;;;;;;5395048;26;20240;-71
2024/04/09 05:36:59;;;;;;;8.57;5.20;;;;;;;;;;5393857;26;20273;-71
2024/04/09 05:39:24;;;;;;;10.32;6.30;;;;;;;;;;5397678;26;21026;-71
2024/04/09 05:41:50;;;;;;;9.80;6.13;;;;;;;;;;5398415;26;20250;-72
2024/04/09 05:44:15;;;;;;;10.82;6.25;;;;;;;;;;5391914;26;20340;-72
2024/04/09 05:46:40;;;;;;;9.88;6.80;;;;;;;;;;5394422;26;20238;-72
2024/04/09 05:49:07;;;;;;;14.15;7.53;;;;;;;;;;5389528;26;20266;-71
2024/04/09 05:51:33;;;;;;;12.70;7.63;;;;;;;;;;5399196;26;20255;-72
2024/04/09 05:53:59;;;;;;;14.02;8.85;;;;;;;;;;5409559;26;20270;-71
2024/04/09 05:56:24;;;;;;;14.98;9.88;;;;;;;;;;5408350;26;20235;-71
2024/04/09 05:58:51;;;;;;;13.00;9.98;;;;;;;;;;5411636;26;20238;-71
2024/04/09 06:01:16;;;;;;;16.80;10.82;;;;;;;;;;5403987;26;20695;-72
2024/04/09 06:03:42;;;;;;;13.63;10.63;;;;;;;;;;5392907;26;20311;-71
2024/04/09 06:06:08;;;;;;;15.68;11.75;;;;;;;;;;5397959;26;20571;-71
2024/04/09 06:08:33;;;;;;;16.17;11.68;;;;;;;;;;5405638;26;20238;-71
2024/04/09 06:10:59;;;;;;;16.23;11.85;;;;;;;;;;5400261;26;20340;-71
2024/04/09 06:13:24;;;;;;;19.02;12.52;;;;;;;;;;5384504;26;20327;-71
2024/04/09 06:15:50;;;;;;;16.60;12.57;;;;;;;;;;5405913;26;20688;-71
2024/04/09 06:18:15;;;;;;;16.35;11.65;;;;;;;;;;5413517;26;20694;-71
2024/04/09 06:20:41;;;;;;;14.18;10.95;;;;;;;;;;5411336;26;20241;-72
2024/04/09 06:23:06;;;;;;;15.05;10.95;;;;;;;;;;5405196;26;20375;-71
2024/04/09 06:25:31;;;;;;;14.45;10.80;;;;;;;;;;5380543;26;20327;-71
2024/04/09 06:27:58;;;;;;;14.70;10.82;;;;;;;;;;5377904;26;20274;-71
2024/04/09 06:30:23;;;;;;;14.80;10.57;;;;;;;;;;5408537;26;20243;-71
2024/04/09 06:32:48;;;;;;;13.38;10.32;;;;;;;;;;5396958;26;20364;-72
2024/04/09 06:35:14;;;;;;;15.07;10.05;;;;;;;;;;5388133;26;20687;-71
2024/04/09 06:37:39;;;;;;;13.90;10.15;;;;;;;;;;5410032;26;20305;-71
2024/04/09 06:40:05;;;;;;;12.75;10.48;;;;;;;;;;5382695;26;20294;-71
2024/04/09 06:42:34;;;;;;;16.58;10.63;;;;;;;;;;5393851;26;20703;-71
2024/04/09 06:45:01;;;;;;;12.10;9.68;;;;;;;;;;5405975;26;20273;-71
2024/04/09 06:47:27;;;;;;;14.57;10.77;;;;;;;;;;5393311;26;20289;-72
2024/04/09 06:49:52;;;;;;;12.82;10.38;;;;;;;;;;5368389;26;20255;-71
2024/04/09 06:52:18;;;;;;;15.70;10.63;;;;;;;;;;5395556;26;20242;-71
2024/04/09 06:54:43;;;;;;;14.15;11.45;;;;;;;;;;5367519;26;20247;-70
2024/04/09 06:57:09;;;;;;;16.85;11.65;;;;;;;;;;5398827;26;20282;-70
2024/04/09 06:59:34;;;;;;;15.30;11.63;;;;;;;;;;5387833;26;20349;-71
2024/04/09 07:02:00;;;;;;;12.95;10.80;;;;;;;;;;5398992;26;20592;-71
2024/04/09 07:04:25;;;;;;;15.48;10.27;;;;;;;;;;5415640;26;20246;-70
2024/04/09 07:06:52;;;;;;;16.27;10.65;;;;;;;;;;5410706;26;20446;-70
2024/04/09 07:09:18;;;;;;;14.68;10.55;;;;;;;;;;5391487;26;20243;-71
2024/04/09 07:11:47;;;;;;;14.25;10.07;;;;;;;;;;5408848;26;20330;-70
2024/04/09 07:14:14;;;;;;;15.50;10.85;;;;;;;;;;5390201;26;20833;-70
2024/04/09 07:16:43;;;;;;;12.32;9.77;;;;;;;;;;5408395;26;20785;-70
2024/04/09 07:19:09;;;;;;;13.10;8.93;;;;;;;;;;5399049;26;20244;-69
2024/04/09 07:21:35;;;;;;;9.65;7.78;;;;;;;;;;5401657;26;20259;-69
2024/04/09 07:24:01;;;;;;;16.15;7.53;;;;;;;;;;5410668;26;20277;-70
2024/04/09 07:26:26;;;;;;;7.55;6.53;;;;;;;;;;5375985;26;20274;-70
2024/04/09 07:28:52;;;;;;;7.82;6.05;;;;;;;;;;5407187;26;20699;-71
2024/04/09 07:31:17;;;;;;;7.97;7.05;;;;;;;;;;5404997;26;20675;-71
2024/04/09 07:33:46;;;;;;;10.27;6.80;;;;;;;;;;5403638;26;20280;-71
2024/04/09 07:36:11;;;;;;;7.97;6.35;;;;;;;;;;5400405;26;20319;-71
2024/04/09 07:38:36;;;;;;;8.57;6.57;;;;;;;;;;5401834;26;20251;-71
2024/04/09 07:41:02;;;;;;;11.45;6.68;;;;;;;;;;5397432;26;20303;-70
2024/04/09 07:43:30;;;;;;;10.25;7.60;;;;;;;;;;5398882;26;20235;-70
2024/04/09 07:45:55;;;;;;;7.65;6.78;;;;;;;;;;5390490;26;20248;-70
2024/04/09 07:48:21;;;;;;;7.93;6.05;;;;;;;;;;5396245;26;20306;-72
2024/04/09 07:50:46;;;;;;;8.27;5.45;;;;;;;;;;5405788;26;20308;-70
2024/04/09 07:53:12;;;;;;;5.20;4.68;;;;;;;;;;5405909;26;20629;-71
2024/04/09 07:55:37;;;;;;;4.68;4.07;;;;;;;;;;5402520;26;20643;-70
2024/04/09 07:58:03;;;;;;;6.07;4.03;;;;;;;;;;5405103;26;20289;-71
2024/04/09 08:00:29;;;;;;;6.25;4.40;;;;;;;;;;5402279;26;20816;-71
2024/04/09 08:02:56;;;;;;;5.45;3.55;;;;;;;;;;5405031;26;20235;-71
2024/04/09 08:05:22;;;;;;;7.60;4.15;;;;;;;;;;5407062;26;20235;-71
2024/04/09 08:07:48;;;;;;;9.55;4.10;;;;;;;;;;5386566;26;20277;-71
2024/04/09 08:10:19;;;;;;;5.38;3.63;;;;;;;;;;5408604;26;20243;-71
2024/04/09 08:12:54;;;;;;;7.03;3.13;;;;;;;;;;5405846;26;20281;-70
2024/04/09 08:15:21;;;;;;;4.40;2.50;;;;;;;;;;5370414;26;20243;-70
2024/04/09 08:17:48;;;;;;;4.93;1.40;;;;;;;;;;5401803;26;20386;-70
2024/04/09 08:20:20;;;;;;;2.53;1.40;;;;;;;;;;5399393;26;20374;-70
2024/04/09 08:22:50;;;;;;;1.85;1.13;;;;;;;;;;5401317;26;20289;-70
2024/04/09 08:25:19;;;;;;;3.25;1.00;;;;;;;;;;5402550;26;20289;-70
2024/04/09 08:27:45;;;;;;;3.75;1.05;;;;;;;;;;5393909;26;23788;-70
2024/04/09 08:30:12;;;;;;;4.10;0.90;;;;;;;;;;5403451;26;20679;-72
2024/04/09 08:32:39;;;;;;;4.57;0.93;;;;;;;;;;5396129;26;20265;-71
2024/04/09 08:35:05;;;;;;;4.40;0.90;;;;;;;;;;5402961;26;20246;-72
2024/04/09 08:37:30;;;;;;;6.50;1.73;;;;;;;;;;5406020;26;20307;-72
2024/04/09 08:39:56;;;;;;;3.47;1.00;;;;;;;;;;5406447;26;20243;-72
2024/04/09 08:42:29;;;;;;;5.82;1.00;;;;;;;;;;5386972;26;20307;-71
2024/04/09 08:44:57;;;;;;;3.25;0.80;;;;;;;;;;5409606;26;20285;-71
2024/04/09 08:47:25;;;;;;;6.20;1.02;;;;;;;;;;5404240;26;20364;-72
2024/04/09 08:49:54;;;;;;;3.00;1.00;;;;;;;;;;5410310;26;20470;-71
2024/04/09 08:52:22;;;;;;;4.47;0.90;;;;;;;;;;5415737;26;20235;-71
2024/04/09 08:54:48;;;;;;;2.38;0.75;;;;;;;;;;5398690;26;20250;-71
2024/04/09 08:57:14;;;;;;;2.67;0.68;;;;;;;;;;5396587;26;20286;-71
2024/04/09 08:59:40;;;;;;;4.70;0.95;;;;;;;;;;5398138;26;20351;-71
2024/04/09 09:02:15;;;;;;;3.38;0.70;;;;;;;;;;5419411;26;20230;-71
2024/04/09 09:04:42;;;;;;;3.40;0.80;;;;;;;;;;5409078;26;20306;-70
2024/04/09 09:07:15;;;;;;;5.85;0.77;;;;;;;;;;5411131;26;20707;-70
2024/04/09 09:09:41;;;;;;;2.45;0.90;;;;;;;;;;5411019;26;20238;-71
2024/04/09 09:12:07;;;;;;;2.55;0.60;;;;;;;;;;5405198;26;20243;-70
2024/04/09 09:14:33;;;;;;;3.95;0.73;;;;;;;;;;5408699;26;20258;-69
2024/04/09 09:17:03;;;;;;;3.90;1.05;;;;;;;;;;5409362;26;20289;-70
2024/04/09 09:19:32;;;;;;;4.65;1.00;;;;;;;;;;5404679;26;20315;-69
2024/04/09 09:21:58;;;;;;;2.50;0.80;;;;;;;;;;5410537;26;20313;-69
2024/04/09 09:24:23;;;;;;;5.50;1.10;;;;;;;;;;5406289;26;20239;-70
2024/04/09 09:26:59;;;;;;;3.35;1.20;;;;;;;;;;5403733;26;20269;-70
2024/04/09 09:29:25;;;;;;;2.75;0.90;;;;;;;;;;5400794;26;20281;-70
2024/04/09 09:31:50;;;;;;;6.15;1.00;;;;;;;;;;5404203;26;20234;-70
2024/04/09 09:34:17;;;;;;;5.63;1.55;;;;;;;;;;5391533;26;20317;-70
2024/04/09 09:36:44;;;;;;;2.80;0.70;;;;;;;;;;5388066;26;20686;-70
2024/04/09 09:39:14;;;;;;;3.83;0.90;;;;;;;;;;5411099;26;20722;-71
2024/04/09 09:41:43;;;;;;;4.18;1.10;;;;;;;;;;5384843;26;20289;-70
2024/04/09 09:44:11;;;;;;;3.75;0.90;;;;;;;;;;5406932;26;20592;-70
2024/04/09 09:46:36;;;;;;;3.47;0.95;;;;;;;;;;5409045;26;20243;-71
2024/04/09 09:49:03;;;;;;;5.57;0.88;;;;;;;;;;5409855;26;20239;-70
2024/04/09 09:51:29;;;;;;;5.22;1.02;;;;;;;;;;5405305;26;20243;-74
2024/04/09 09:53:56;;;;;;;4.43;0.85;;;;;;;;;;5411241;26;20291;-69
2024/04/09 09:56:25;;;;;;;3.25;0.70;;;;;;;;;;5404195;26;20294;-70
2024/04/09 09:58:53;;;;;;;5.38;0.98;;;;;;;;;;5381132;26;20307;-74
2024/04/09 10:01:19;;;;;;;4.50;0.80;;;;;;;;;;5421236;26;20231;-70
2024/04/09 10:03:45;;;;;;;5.85;0.93;;;;;;;;;;5398611;26;20235;-71
2024/04/09 10:06:11;;;;;;;5.03;0.80;;;;;;;;;;5407405;26;20356;-70
2024/04/09 10:08:44;;;;;;;4.95;0.90;;;;;;;;;;5399507;26;20337;-71
2024/04/09 10:11:11;;;;;;;3.30;0.85;;;;;;;;;;5407420;26;20235;-70
2024/04/09 10:13:48;;;;;;;3.17;0.63;;;;;;;;;;5411101;26;20298;-71
2024/04/09 10:16:17;;;;;;;8.98;0.80;;;;;;;;;;5404580;26;20277;-71
2024/04/09 10:18:46;;;;;;;2.88;0.50;;;;;;;;;;5398882;26;20261;-71
2024/04/09 10:21:14;;;;;;;1.83;0.90;;;;;;;;;;5384683;26;20608;-71
2024/04/09 10:23:41;;;;;;;5.55;1.00;;;;;;;;;;5401455;26;20235;-70
2024/04/09 10:26:09;;;;;;;3.17;0.77;;;;;;;;;;5409311;26;20277;-71
2024/04/09 10:28:38;;;;;;;3.28;0.93;;;;;;;;;;5390146;26;20386;-71
2024/04/09 10:31:05;;;;;;;4.22;1.25;;;;;;;;;;5408192;26;20721;-70
2024/04/09 10:33:36;;;;;;;4.97;1.20;;;;;;;;;;5403894;26;20285;-70
2024/04/09 10:36:06;;;;;;;3.83;1.00;;;;;;;;;;5408659;26;20277;-73
2024/04/09 10:38:33;;;;;;;3.10;1.00;;;;;;;;;;5405465;26;20990;-71
2024/04/09 10:41:02;;;;;;;4.10;0.85;;;;;;;;;;5409537;26;20292;-69
2024/04/09 10:43:29;;;;;;;3.55;0.80;;;;;;;;;;5408771;26;20281;-70
2024/04/09 10:45:58;;;;;;;4.25;1.08;;;;;;;;;;5407671;26;20585;-70
2024/04/09 10:48:24;;;;;;;3.13;0.90;;;;;;;;;;5408952;26;20295;-71
2024/04/09 10:50:50;;;;;;;4.00;1.40;;;;;;;;;;5409114;26;20243;-69
2024/04/09 10:53:16;;;;;;;3.88;1.20;;;;;;;;;;5408647;26;20672;-70
2024/04/09 10:55:41;;;;;;;5.20;1.52;;;;;;;;;;5409080;26;20286;-70
2024/04/09 10:58:15;;;;;;;2.22;1.30;;;;;;;;;;5403055;26;20254;-70
2024/04/09 11:00:43;;;;;;;3.55;1.45;;;;;;;;;;5400947;26;20250;-71
2024/04/09 11:03:08;;;;;;;6.13;1.67;;;;;;;;;;5387946;26;20307;-71
2024/04/09 11:05:34;;;;;;;7.40;1.40;;;;;;;;;;5393970;26;20275;-69
2024/04/09 11:07:59;;;;;;;3.67;1.30;;;;;;;;;;5404139;26;20683;-69
2024/04/09 11:10:25;;;;;;;5.20;1.30;;;;;;;;;;5380254;26;20340;-69
2024/04/09 11:12:52;;;;;;;3.53;0.85;;;;;;;;;;5373021;26;20235;-71
2024/04/09 11:15:18;;;;;;;3.40;1.00;;;;;;;;;;5376869;26;20239;-70
2024/04/09 11:17:44;;;;;;;3.95;1.15;;;;;;;;;;5399730;26;20349;-70
2024/04/09 11:20:11;;;;;;;2.90;0.90;;;;;;;;;;5401843;26;20250;-70
2024/04/09 11:22:43;;;;;;;3.13;0.70;;;;;;;;;;5401011;26;20239;-70
2024/04/09 11:25:15;;;;;;;4.63;0.82;;;;;;;;;;5404636;26;20243;-72
2024/04/09 11:27:48;;;;;;;4.07;1.08;;;;;;;;;;5378151;26;20278;-69
2024/04/09 11:30:29;;;;;;;4.22;0.88;;;;;;;;;;5392456;26;20648;-70
2024/04/09 11:32:56;;;;;;;7.28;1.23;;;;;;;;;;5394147;26;20234;-70
2024/04/09 11:35:23;;;;;;;3.30;1.00;;;;;;;;;;5402380;26;20354;-70
2024/04/09 11:37:57;;;;;;;3.50;1.02;;;;;;;;;;5408199;26;20709;-70
2024/04/09 11:40:23;;;;;;;2.78;1.20;;;;;;;;;;5407043;26;20697;-69
2024/04/09 11:42:53;;;;;;;4.28;1.48;;;;;;;;;;5409485;26;20694;-71
2024/04/09 11:45:39;;;;;;;2.72;1.10;;;;;;;;;;5408977;26;20239;-69
2024/04/09 11:48:05;;;;;;;3.95;1.55;;;;;;;;;;5373192;26;20719;-71
2024/04/09 11:50:32;;;;;;;4.15;1.27;;;;;;;;;;5395527;26;20254;-71
2024/04/09 11:52:58;;;;;;;2.88;1.10;;;;;;;;;;5400448;26;20276;-71
2024/04/09 11:55:23;;;;;;;5.47;1.25;;;;;;;;;;5409488;26;20231;-70
2024/04/09 11:57:49;;;;;;;2.67;0.88;;;;;;;;;;5401378;26;20232;-71
2024/04/09 12:00:15;;;;;;;7.97;1.38;;;;;;;;;;5372121;26;20579;-70
2024/04/09 12:02:45;;;;;;;6.80;1.00;;;;;;;;;;5376056;26;20235;-71
2024/04/09 12:05:12;;;;;;;5.00;0.90;;;;;;;;;;5387964;26;20725;-72
2024/04/09 12:07:38;;;;;;;3.97;1.08;;;;;;;;;;5400350;26;20235;-76
2024/04/09 12:10:05;;;;;;;6.40;1.40;;;;;;;;;;5371196;26;20278;-74
2024/04/09 12:12:31;;;;;;;4.22;0.95;;;;;;;;;;5390811;26;20734;-71
2024/04/09 12:14:57;;;;;;;4.30;0.98;;;;;;;;;;5405361;26;20285;-74
2024/04/09 12:17:22;;;;;;;3.95;1.33;;;;;;;;;;5407453;26;20242;-72
2024/04/09 12:19:48;;;;;;;7.85;1.45;;;;;;;;;;5406528;26;20235;-71
2024/04/09 12:22:16;;;;;;;40.17;10.95;;;;;;;;;;5387421;26;20258;-70
2024/04/09 12:24:42;;;;;;;35.70;9.45;;;;;;;;;;5374245;26;20347;-70
2024/04/09 12:27:08;;;;;;;11.00;2.22;;;;;;;;;;5406065;26;20262;-72
2024/04/09 12:29:33;;;;;;;3.42;0.95;;;;;;;;;;5399253;26;20262;-71
2024/04/09 12:31:59;;;;;;;7.72;1.73;;;;;;;;;;5397426;26;20255;-73
2024/04/09 12:34:27;;;;;;;7.22;1.35;;;;;;;;;;5394393;26;20262;-70
2024/04/09 12:36:52;;;;;;;4.57;1.05;;;;;;;;;;5381697;26;20323;-70
2024/04/09 12:39:18;;;;;;;7.55;1.83;;;;;;;;;;5404347;26;20242;-71
2024/04/09 12:41:43;;;;;;;5.05;1.40;;;;;;;;;;5398860;26;20403;-70
2024/04/09 12:44:10;;;;;;;3.47;0.98;;;;;;;;;;5400356;26;20527;-72
2024/04/09 12:46:36;;;;;;;5.45;1.20;;;;;;;;;;5387504;26;20440;-71
2024/04/09 12:49:02;;;;;;;4.78;1.35;;;;;;;;;;5392017;26;20238;-71
2024/04/09 12:51:28;;;;;;;7.07;1.63;;;;;;;;;;5390003;26;20232;-71
2024/04/09 12:53:54;;;;;;;7.32;1.17;;;;;;;;;;5392870;26;20657;-71
2024/04/09 12:56:22;;;;;;;4.03;1.27;;;;;;;;;;5400623;26;20792;-71
2024/04/09 12:58:47;;;;;;;5.82;1.40;;;;;;;;;;5409632;26;20238;-71
2024/04/09 13:01:15;;;;;;;2.08;0.68;;;;;;;;;;5400263;26;20346;-71
2024/04/09 13:03:42;;;;;;;14.50;3.03;;;;;;;;;;5394355;26;20234;-72
2024/04/09 13:06:08;;;;;;;8.07;2.05;;;;;;;;;;5407085;26;20238;-71
2024/04/09 13:08:33;;;;;;;6.03;1.35;;;;;;;;;;5409193;26;20235;-71
2024/04/09 13:10:59;;;;;;;6.55;1.30;;;;;;;;;;5407931;26;20242;-72
2024/04/09 13:13:25;;;;;;;4.72;1.17;;;;;;;;;;5392887;26;20721;-70
2024/04/09 13:15:50;;;;;;;6.20;0.88;;;;;;;;;;5393978;26;20235;-69
2024/04/09 13:18:16;;;;;;;2.88;0.90;;;;;;;;;;5406446;26;20238;-71
2024/04/09 13:20:41;;;;;;;6.03;1.17;;;;;;;;;;5406002;26;20370;-70
2024/04/09 13:23:07;;;;;;;6.60;1.10;;;;;;;;;;5405881;26;20325;-74
2024/04/09 13:25:33;;;;;;;4.47;0.77;;;;;;;;;;5391428;26;20281;-73
2024/04/09 13:27:58;;;;;;;6.43;1.02;;;;;;;;;;5365602;26;20261;-70
2024/04/09 13:30:25;;;;;;;4.93;1.02;;;;;;;;;;5408361;26;20310;-71
2024/04/09 13:32:51;;;;;;;4.03;0.77;;;;;;;;;;5390603;26;20315;-73
2024/04/09 13:35:16;;;;;;;4.35;0.80;;;;;;;;;;5392113;26;20773;-76
2024/04/09 13:37:43;;;;;;;6.30;1.20;;;;;;;;;;5394742;26;20284;-72
2024/04/09 13:40:11;;;;;;;6.10;0.88;;;;;;;;;;5404393;26;20619;-72
2024/04/09 13:42:44;;;;;;;4.15;1.00;;;;;;;;;;5391933;26;20258;-76
2024/04/09 13:45:10;;;;;;;5.80;0.85;;;;;;;;;;5384651;26;20775;-71
2024/04/09 13:47:36;;;;;;;5.95;1.13;;;;;;;;;;5406629;26;20277;-71
2024/04/09 13:50:05;;;;;;;2.33;0.80;;;;;;;;;;5409929;26;20230;-69
2024/04/09 13:52:32;;;;;;;2.47;0.75;;;;;;;;;;5409263;26;20328;-69
2024/04/09 13:54:57;;;;;;;5.78;1.10;;;;;;;;;;5409414;26;20250;-70
2024/04/09 13:57:23;;;;;;;4.72;1.20;;;;;;;;;;5407135;26;20280;-74
2024/04/09 13:59:48;;;;;;;6.50;1.10;;;;;;;;;;5411824;26;20281;-70
2024/04/09 14:02:16;;;;;;;6.78;0.60;;;;;;;;;;5401422;26;20239;-71
2024/04/09 14:04:42;;;;;;;4.18;0.75;;;;;;;;;;5388755;26;20290;-71
2024/04/09 14:07:07;;;;;;;3.38;0.50;;;;;;;;;;5399705;26;20271;-71
2024/04/09 14:09:33;;;;;;;2.15;0.70;;;;;;;;;;5370417;26;20268;-71
2024/04/09 14:11:58;;;;;;;3.75;0.95;;;;;;;;;;5411065;26;20319;-71
2024/04/09 14:14:23;;;;;;;3.75;0.70;;;;;;;;;;5403385;26;20244;-71
2024/04/09 14:16:49;;;;;;;3.05;0.70;;;;;;;;;;5410735;26;20251;-75
2024/04/09 14:19:19;;;;;;;5.55;0.85;;;;;;;;;;5400993;26;20286;-70
2024/04/09 14:21:45;;;;;;;4.50;0.90;;;;;;;;;;5409055;26;20235;-71
2024/04/09 14:24:10;;;;;;;5.05;0.60;;;;;;;;;;5410774;26;20835;-70
2024/04/09 14:26:36;;;;;;;5.03;1.00;;;;;;;;;;5396454;26;20323;-71
2024/04/09 14:29:01;;;;;;;4.13;0.80;;;;;;;;;;5411894;26;20738;-71
2024/04/09 14:31:27;;;;;;;5.68;0.85;;;;;;;;;;5402491;26;20600;-71
2024/04/09 14:33:53;;;;;;;4.20;1.13;;;;;;;;;;5393239;26;20412;-70